La rose des vents
Donnes mto: Semaine 02/04/07 - 08/04/07 (S 14)
Date Horaire Temp. E. Hum. E. P.atmo. Pluie Vent 1mn Direction Ensoleilleme Ev.Tr. Solaire P. de rose Temp au vent Rafales
02/04/2007 00:00 9,6 C 80 % 1022,9 hPa 0,0 l/m 5,0 km/h (1 Bft) N 0,00 h 0,025 mm 0 W/m 6,3 C 9,3 C 7,6 km/h (2 Bft)
02/04/2007 01:00 11,1 C 70 % 1023,0 hPa 0,0 l/m 3,7 km/h (1 Bft) N-NE 0,00 h 0,025 mm 0 W/m 5,9 C 11,1 C 6,8 km/h (2 Bft)
02/04/2007 02:00 11,3 C 67 % 1022,6 hPa 0,0 l/m 2,9 km/h (1 Bft) N 0,00 h 0,025 mm 0 W/m 5,4 C 11,3 C 5,0 km/h (1 Bft)
02/04/2007 03:00 12,1 C 62 % 1022,4 hPa 0,0 l/m 3,1 km/h (1 Bft) N-NE 0,00 h 0,025 mm 0 W/m 5,0 C 12,1 C 5,1 km/h (1 Bft)
02/04/2007 04:00 12,4 C 60 % 1022,0 hPa 0,0 l/m 2,2 km/h (1 Bft) N-NE 0,00 h 0,051 mm 0 W/m 4,9 C 12,4 C 4,2 km/h (1 Bft)
02/04/2007 05:00 12,4 C 59 % 1021,8 hPa 0,0 l/m 0,8 km/h (0 Bft) N 0,00 h 0,051 mm 0 W/m 4,7 C 12,4 C 1,9 km/h (1 Bft)
02/04/2007 06:00 12,5 C 59 % 1021,7 hPa 0,0 l/m 2,1 km/h (1 Bft) N 0,00 h 0,025 mm 0 W/m 4,6 C 12,5 C 3,9 km/h (1 Bft)
02/04/2007 07:00 11,9 C 61 % 1021,6 hPa 0,0 l/m 2,1 km/h (1 Bft) N 0,30 h 0,025 mm 31 W/m 4,5 C 11,9 C 4,7 km/h (1 Bft)
02/04/2007 08:00 13,0 C 59 % 1021,7 hPa 0,0 l/m 4,1 km/h (1 Bft) N-NE 0,17 h 0,025 mm 120 W/m 5,3 C 13,0 C 6,5 km/h (2 Bft)
02/04/2007 09:00 15,9 C 53 % 1021,8 hPa 0,0 l/m 7,5 km/h (2 Bft) N-NE 0,92 h 0,076 mm 340 W/m 6,2 C 15,9 C 11,0 km/h (2 Bft)
02/04/2007 10:00 17,7 C 52 % 1021,7 hPa 0,0 l/m 11,9 km/h (2 Bft) E-NE 1,00 h 0,229 mm 455 W/m 7,7 C 17,7 C 16,6 km/h (3 Bft)
02/04/2007 11:00 18,2 C 54 % 1021,4 hPa 0,0 l/m 20,6 km/h (4 Bft) E-NE 1,00 h 0,330 mm 626 W/m 8,7 C 18,2 C 27,4 km/h (4 Bft)
02/04/2007 12:00 18,8 C 53 % 1020,9 hPa 0,0 l/m 20,7 km/h (4 Bft) E 1,00 h 0,483 mm 751 W/m 8,9 C 18,8 C 28,5 km/h (4 Bft)
02/04/2007 13:00 19,5 C 53 % 1020,1 hPa 0,0 l/m 16,9 km/h (3 Bft) E 0,95 h 0,559 mm 686 W/m 9,5 C 19,5 C 24,0 km/h (4 Bft)
02/04/2007 14:00 18,2 C 58 % 1019,6 hPa 0,0 l/m 18,0 km/h (3 Bft) E-NE 0,97 h 0,508 mm 666 W/m 9,8 C 18,2 C 24,9 km/h (4 Bft)
02/04/2007 15:00 18,6 C 56 % 1018,9 hPa 0,0 l/m 20,1 km/h (4 Bft) E 1,00 h 0,483 mm 592 W/m 9,7 C 18,6 C 27,3 km/h (4 Bft)
02/04/2007 16:00 18,9 C 54 % 1018,3 hPa 0,0 l/m 21,8 km/h (4 Bft) E-NE 1,00 h 0,457 mm 568 W/m 9,3 C 18,9 C 30,2 km/h (5 Bft)
02/04/2007 17:00 17,4 C 56 % 1017,8 hPa 0,0 l/m 20,6 km/h (4 Bft) E 0,40 h 0,457 mm 251 W/m 8,7 C 17,4 C 28,0 km/h (4 Bft)
02/04/2007 18:00 16,6 C 58 % 1017,5 hPa 0,0 l/m 16,2 km/h (3 Bft) E 0,00 h 0,254 mm 106 W/m 8,3 C 16,6 C 22,5 km/h (4 Bft)
02/04/2007 19:00 15,9 C 58 % 1017,4 hPa 0,0 l/m 11,0 km/h (2 Bft) E-NE 0,00 h 0,152 mm 28 W/m 7,6 C 15,9 C 16,1 km/h (3 Bft)
02/04/2007 20:00 15,1 C 59 % 1017,1 hPa 0,0 l/m 3,1 km/h (1 Bft) NE 0,00 h 0,076 mm 0 W/m 7,1 C 15,1 C 4,9 km/h (1 Bft)
02/04/2007 21:00 14,2 C 60 % 1016,9 hPa 0,0 l/m 5,3 km/h (1 Bft) N-NE 0,00 h 0,025 mm 0 W/m 6,6 C 14,2 C 8,3 km/h (2 Bft)
02/04/2007 22:00 14,6 C 56 % 1016,7 hPa 0,0 l/m 8,9 km/h (2 Bft) N-NE 0,00 h 0,051 mm 0 W/m 5,8 C 14,6 C 13,7 km/h (3 Bft)
02/04/2007 23:00 14,8 C 51 % 1016,3 hPa 0,0 l/m 8,4 km/h (2 Bft) N-NE 0,00 h 0,076 mm 0 W/m 4,9 C 14,8 C 13,0 km/h (3 Bft)
03/04/2007 00:00 14,7 C 52 % 1015,8 hPa 0,0 l/m 8,9 km/h (2 Bft) N-NE 0,00 h 0,076 mm 0 W/m 5,0 C 14,7 C 14,1 km/h (3 Bft)
03/04/2007 01:00 14,3 C 55 % 1015,2 hPa 0,0 l/m 7,8 km/h (2 Bft) N-NE 0,00 h 0,076 mm 0 W/m 5,3 C 14,3 C 12,3 km/h (3 Bft)
03/04/2007 02:00 13,3 C 57 % 1014,5 hPa 0,0 l/m 3,7 km/h (1 Bft) N-NE 0,00 h 0,076 mm 0 W/m 5,0 C 13,3 C 6,3 km/h (2 Bft)
03/04/2007 03:00 12,4 C 60 % 1013,8 hPa 0,0 l/m 0,4 km/h (0 Bft) N-NE 0,00 h 0,051 mm 0 W/m 4,9 C 12,4 C 1,5 km/h (1 Bft)
03/04/2007 04:00 11,6 C 64 % 1013,2 hPa 0,0 l/m 3,5 km/h (1 Bft) E-SE 0,00 h 0,025 mm 0 W/m 5,0 C 11,6 C 4,7 km/h (1 Bft)
03/04/2007 05:00 11,5 C 64 % 1012,8 hPa 0,0 l/m 3,0 km/h (1 Bft) N 0,00 h 0,051 mm 0 W/m 4,9 C 11,5 C 5,4 km/h (1 Bft)
03/04/2007 06:00 11,6 C 63 % 1012,2 hPa 0,0 l/m 2,6 km/h (1 Bft) N 0,00 h 0,051 mm 0 W/m 4,8 C 11,6 C 4,4 km/h (1 Bft)
03/04/2007 07:00 10,9 C 66 % 1012,0 hPa 0,0 l/m 0,4 km/h (0 Bft) O-NO 0,02 h 0,025 mm 15 W/m 4,8 C 10,9 C 1,1 km/h (0 Bft)
03/04/2007 08:00 11,7 C 67 % 1011,8 hPa 0,0 l/m 0,1 km/h (0 Bft) E 0,27 h 0,025 mm 131 W/m 5,8 C 11,7 C 0,7 km/h (0 Bft)
03/04/2007 09:00 13,9 C 60 % 1011,6 hPa 0,0 l/m 4,6 km/h (1 Bft) E-NE 0,87 h 0,076 mm 328 W/m 6,3 C 13,9 C 7,0 km/h (2 Bft)
03/04/2007 10:00 15,6 C 58 % 1010,9 hPa 0,0 l/m 3,9 km/h (1 Bft) E 0,83 h 0,203 mm 425 W/m 7,4 C 15,6 C 6,7 km/h (2 Bft)
03/04/2007 11:00 16,4 C 63 % 1010,5 hPa 0,0 l/m 7,1 km/h (2 Bft) E 0,77 h 0,254 mm 516 W/m 9,3 C 16,4 C 11,4 km/h (2 Bft)
03/04/2007 12:00 15,4 C 71 % 1010,2 hPa 0,0 l/m 6,3 km/h (2 Bft) E 0,42 h 0,330 mm 378 W/m 10,1 C 15,4 C 10,4 km/h (2 Bft)
03/04/2007 13:00 16,9 C 63 % 1009,2 hPa 0,0 l/m 8,2 km/h (2 Bft) E-NE 0,98 h 0,229 mm 672 W/m 9,7 C 16,9 C 12,8 km/h (3 Bft)
03/04/2007 14:00 18,2 C 55 % 1008,2 hPa 0,0 l/m 6,9 km/h (2 Bft) E 1,00 h 0,432 mm 777 W/m 9,1 C 18,2 C 11,6 km/h (2 Bft)
03/04/2007 15:00 18,0 C 57 % 1007,1 hPa 0,0 l/m 6,1 km/h (2 Bft) E 0,67 h 0,483 mm 564 W/m 9,1 C 18,0 C 12,3 km/h (3 Bft)
03/04/2007 16:00 15,4 C 68 % 1006,7 hPa 0,0 l/m 5,9 km/h (2 Bft) E 0,07 h 0,356 mm 197 W/m 9,5 C 15,4 C 9,5 km/h (2 Bft)
03/04/2007 17:00 14,9 C 71 % 1006,0 hPa 0,0 l/m 3,5 km/h (1 Bft) S-SE 0,23 h 0,127 mm 197 W/m 9,6 C 14,9 C 5,7 km/h (1 Bft)
03/04/2007 18:00 14,7 C 74 % 1005,4 hPa 0,0 l/m 5,1 km/h (1 Bft) S 0,55 h 0,127 mm 148 W/m 10,1 C 14,7 C 7,3 km/h (2 Bft)
03/04/2007 19:00 14,0 C 75 % 1004,9 hPa 0,0 l/m 2,1 km/h (1 Bft) S-SE 0,08 h 0,102 mm 39 W/m 9,6 C 14,0 C 3,4 km/h (1 Bft)
03/04/2007 20:00 12,9 C 77 % 1004,4 hPa 0,0 l/m 2,3 km/h (1 Bft) S-SE 0,00 h 0,025 mm 0 W/m 8,9 C 12,9 C 3,3 km/h (1 Bft)
03/04/2007 21:00 12,1 C 78 % 1004,2 hPa 0,0 l/m 2,4 km/h (1 Bft) SO 0,00 h 0,000 mm 0 W/m 8,5 C 12,1 C 3,6 km/h (1 Bft)
03/04/2007 22:00 11,3 C 81 % 1003,6 hPa 0,0 l/m 1,1 km/h (0 Bft) NO 0,00 h 0,025 mm 0 W/m 8,1 C 11,3 C 2,3 km/h (1 Bft)
03/04/2007 23:00 10,2 C 86 % 1002,8 hPa 0,0 l/m 0,5 km/h (0 Bft) O-NO 0,00 h 0,025 mm 0 W/m 7,9 C 10,2 C 1,0 km/h (0 Bft)
04/04/2007 00:00 9,9 C 88 % 1001,9 hPa 0,0 l/m 0,0 km/h (0 Bft) N 0,00 h 0,025 mm 0 W/m 8,0 C 9,9 C 0,2 km/h (0 Bft)
04/04/2007 01:00 10,0 C 87 % 1001,1 hPa 0,0 l/m 2,9 km/h (1 Bft) O-NO 0,00 h 0,000 mm 0 W/m 7,9 C 9,8 C 4,1 km/h (1 Bft)
04/04/2007 02:00 9,8 C 84 % 1000,1 hPa 0,0 l/m 4,7 km/h (1 Bft) O-NO 0,00 h 0,025 mm 0 W/m 7,3 C 9,5 C 6,4 km/h (2 Bft)
04/04/2007 03:00 10,0 C 79 % 999,1 hPa 0,0 l/m 4,1 km/h (1 Bft) O-NO 0,00 h 0,025 mm 0 W/m 6,5 C 9,8 C 5,4 km/h (1 Bft)
04/04/2007 04:00 9,7 C 76 % 998,2 hPa 0,0 l/m 2,6 km/h (1 Bft) O-NO 0,00 h 0,025 mm 0 W/m 5,7 C 9,7 C 3,9 km/h (1 Bft)
04/04/2007 05:00 9,1 C 77 % 997,7 hPa 0,0 l/m 3,1 km/h (1 Bft) O-NO 0,00 h 0,025 mm 0 W/m 5,2 C 8,9 C 4,3 km/h (1 Bft)
04/04/2007 06:00 7,7 C 80 % 997,6 hPa 0,0 l/m 1,4 km/h (1 Bft) E 0,00 h 0,025 mm 0 W/m 4,5 C 7,7 C 2,8 km/h (1 Bft)
04/04/2007 07:00 7,0 C 84 % 997,9 hPa 0,0 l/m 3,7 km/h (1 Bft) N-NE 0,00 h 0,000 mm 23 W/m 4,5 C 6,6 C 6,3 km/h (2 Bft)
04/04/2007 08:00 9,0 C 80 % 998,1 hPa 0,0 l/m 3,6 km/h (1 Bft) NE 0,15 h 0,025 mm 106 W/m 5,7 C 8,8 C 5,9 km/h (2 Bft)
04/04/2007 09:00 12,6 C 71 % 998,3 hPa 0,0 l/m 1,3 km/h (1 Bft) NE 0,88 h 0,051 mm 292 W/m 7,5 C 12,6 C 3,4 km/h (1 Bft)
04/04/2007 10:00 14,3 C 63 % 998,7 hPa 0,0 l/m 1,5 km/h (1 Bft) NO 1,00 h 0,152 mm 506 W/m 7,4 C 14,3 C 3,8 km/h (1 Bft)
04/04/2007 11:00 15,9 C 61 % 999,2 hPa 0,0 l/m 5,3 km/h (1 Bft) S 1,00 h 0,279 mm 579 W/m 8,4 C 15,9 C 8,6 km/h (2 Bft)
04/04/2007 12:00 15,9 C 61 % 1000,0 hPa 0,0 l/m 9,0 km/h (2 Bft) S 1,00 h 0,330 mm 671 W/m 8,3 C 15,9 C 13,7 km/h (3 Bft)
04/04/2007 13:00 16,7 C 60 % 1000,6 hPa 0,0 l/m 12,0 km/h (2 Bft) E-NE 0,93 h 0,381 mm 717 W/m 8,8 C 16,7 C 18,2 km/h (3 Bft)
04/04/2007 14:00 17,3 C 57 % 1001,2 hPa 0,0 l/m 17,5 km/h (3 Bft) E 1,00 h 0,457 mm 789 W/m 8,6 C 17,3 C 24,6 km/h (4 Bft)
04/04/2007 15:00 16,7 C 55 % 1002,0 hPa 0,0 l/m 8,4 km/h (2 Bft) E 0,45 h 0,533 mm 456 W/m 7,7 C 16,7 C 13,8 km/h (3 Bft)
04/04/2007 16:00 15,6 C 58 % 1002,4 hPa 0,0 l/m 5,4 km/h (1 Bft) E 0,23 h 0,305 mm 291 W/m 7,3 C 15,6 C 10,0 km/h (2 Bft)
04/04/2007 17:00 14,9 C 67 % 1002,6 hPa 0,0 l/m 5,9 km/h (2 Bft) S 0,48 h 0,203 mm 273 W/m 8,9 C 14,9 C 10,2 km/h (2 Bft)
04/04/2007 18:00 14,0 C 74 % 1003,3 hPa 0,2 l/m 4,7 km/h (1 Bft) S 0,00 h 0,178 mm 61 W/m 9,4 C 14,0 C 7,2 km/h (2 Bft)
04/04/2007 19:00 12,4 C 86 % 1004,4 hPa 0,0 l/m 3,4 km/h (1 Bft) NO 0,00 h 0,051 mm 14 W/m 10,0 C 12,4 C 5,5 km/h (1 Bft)
04/04/2007 20:00 12,4 C 74 % 1005,1 hPa 0,0 l/m 7,8 km/h (2 Bft) NE 0,00 h 0,025 mm 0 W/m 7,9 C 12,4 C 12,4 km/h (3 Bft)
04/04/2007 21:00 12,0 C 73 % 1006,2 hPa 0,4 l/m 8,5 km/h (2 Bft) NE 0,00 h 0,025 mm 0 W/m 7,4 C 12,0 C 13,4 km/h (3 Bft)
04/04/2007 22:00 10,8 C 83 % 1006,8 hPa 0,4 l/m 6,5 km/h (2 Bft) N 0,00 h 0,051 mm 0 W/m 8,0 C 10,8 C 11,7 km/h (2 Bft)
04/04/2007 23:00 11,1 C 78 % 1006,9 hPa 0,0 l/m 6,7 km/h (2 Bft) N 0,00 h 0,025 mm 0 W/m 7,5 C 11,1 C 11,3 km/h (2 Bft)
05/04/2007 00:00 12,1 C 70 % 1007,2 hPa 0,0 l/m 7,7 km/h (2 Bft) N 0,00 h 0,025 mm 0 W/m 6,8 C 12,1 C 12,9 km/h (3 Bft)
05/04/2007 01:00 12,6 C 67 % 1007,2 hPa 0,0 l/m 5,7 km/h (1 Bft) NE 0,00 h 0,051 mm 0 W/m 6,7 C 12,6 C 8,7 km/h (2 Bft)
05/04/2007 02:00 11,9 C 72 % 1007,3 hPa 0,0 l/m 1,1 km/h (1 Bft) N-NE 0,00 h 0,051 mm 0 W/m 6,9 C 11,9 C 2,5 km/h (1 Bft)
05/04/2007 03:00 12,0 C 69 % 1007,4 hPa 0,0 l/m 1,7 km/h (1 Bft) N-NE 0,00 h 0,025 mm 0 W/m 6,4 C 12,0 C 3,5 km/h (1 Bft)
05/04/2007 04:00 11,8 C 69 % 1007,5 hPa 0,0 l/m 0,1 km/h (0 Bft) NE 0,00 h 0,025 mm 0 W/m 6,3 C 11,8 C 0,3 km/h (0 Bft)
05/04/2007 05:00 11,7 C 68 % 1007,8 hPa 0,0 l/m 1,2 km/h (1 Bft) N-NE 0,00 h 0,025 mm 0 W/m 6,0 C 11,7 C 1,9 km/h (1 Bft)
05/04/2007 06:00 12,4 C 61 % 1008,0 hPa 0,0 l/m 1,7 km/h (1 Bft) N 0,00 h 0,025 mm 0 W/m 5,1 C 12,4 C 3,0 km/h (1 Bft)
05/04/2007 07:00 12,0 C 63 % 1008,8 hPa 0,0 l/m 3,4 km/h (1 Bft) N-NO 0,05 h 0,025 mm 25 W/m 5,2 C 12,0 C 5,3 km/h (1 Bft)
05/04/2007 08:00 12,6 C 64 % 1009,3 hPa 0,0 l/m 1,8 km/h (1 Bft) O-NO 0,18 h 0,025 mm 106 W/m 6,0 C 12,6 C 3,2 km/h (1 Bft)
05/04/2007 09:00 15,6 C 56 % 1009,8 hPa 0,0 l/m 4,9 km/h (1 Bft) SO 1,00 h 0,076 mm 366 W/m 6,8 C 15,6 C 7,5 km/h (2 Bft)
05/04/2007 10:00 17,4 C 48 % 1010,4 hPa 0,0 l/m 4,3 km/h (1 Bft) S 1,00 h 0,229 mm 532 W/m 6,2 C 17,4 C 7,2 km/h (2 Bft)
05/04/2007 11:00 18,5 C 43 % 1011,1 hPa 0,2 l/m 5,9 km/h (2 Bft) E 1,00 h 0,330 mm 665 W/m 5,5 C 18,5 C 10,4 km/h (2 Bft)
05/04/2007 12:00 19,2 C 47 % 1011,4 hPa 0,0 l/m 9,4 km/h (2 Bft) E 1,00 h 0,432 mm 744 W/m 7,6 C 19,2 C 14,9 km/h (3 Bft)
05/04/2007 13:00 18,9 C 52 % 1011,5 hPa 0,0 l/m 10,9 km/h (2 Bft) E 1,00 h 0,508 mm 776 W/m 8,7 C 18,9 C 19,1 km/h (3 Bft)
05/04/2007 14:00 18,1 C 56 % 1011,8 hPa 0,0 l/m 11,1 km/h (2 Bft) E 1,00 h 0,508 mm 747 W/m 9,0 C 18,1 C 19,2 km/h (3 Bft)
05/04/2007 15:00 17,9 C 56 % 1011,8 hPa 0,0 l/m 8,2 km/h (2 Bft) E 1,00 h 0,483 mm 663 W/m 9,1 C 17,9 C 13,1 km/h (3 Bft)
05/04/2007 16:00 17,2 C 56 % 1011,7 hPa 0,0 l/m 3,8 km/h (1 Bft) S-SE 1,00 h 0,406 mm 523 W/m 8,3 C 17,2 C 7,2 km/h (2 Bft)
05/04/2007 17:00 17,4 C 53 % 1011,9 hPa 0,0 l/m 2,5 km/h (1 Bft) SE 1,00 h 0,305 mm 367 W/m 7,6 C 17,4 C 4,8 km/h (1 Bft)
05/04/2007 18:00 17,7 C 48 % 1012,0 hPa 0,0 l/m 0,9 km/h (0 Bft) SE 1,00 h 0,229 mm 190 W/m 6,5 C 17,7 C 2,1 km/h (1 Bft)
05/04/2007 19:00 16,3 C 48 % 1012,2 hPa 0,0 l/m 1,3 km/h (1 Bft) NO 0,15 h 0,127 mm 41 W/m 5,4 C 16,3 C 3,1 km/h (1 Bft)
05/04/2007 20:00 14,3 C 54 % 1012,5 hPa 0,0 l/m 4,0 km/h (1 Bft) O-NO 0,00 h 0,051 mm 5 W/m 5,2 C 14,3 C 6,3 km/h (2 Bft)
05/04/2007 21:00 13,7 C 56 % 1013,0 hPa 0,0 l/m 7,1 km/h (2 Bft) O-NO 0,00 h 0,025 mm 0 W/m 5,0 C 13,7 C 10,6 km/h (2 Bft)
05/04/2007 22:00 13,3 C 57 % 1013,4 hPa 0,0 l/m 6,0 km/h (2 Bft) O-NO 0,00 h 0,076 mm 0 W/m 4,9 C 13,3 C 9,3 km/h (2 Bft)
05/04/2007 23:00 12,8 C 58 % 1013,7 hPa 0,0 l/m 8,1 km/h (2 Bft) O-NO 0,00 h 0,051 mm 0 W/m 4,8 C 12,8 C 11,4 km/h (2 Bft)
06/04/2007 00:00 12,9 C 57 % 1014,0 hPa 0,0 l/m 9,0 km/h (2 Bft) O-NO 0,00 h 0,076 mm 0 W/m 4,6 C 12,9 C 12,8 km/h (3 Bft)
06/04/2007 01:00 12,6 C 58 % 1014,4 hPa 0,0 l/m 5,7 km/h (1 Bft) NO 0,00 h 0,076 mm 0 W/m 4,6 C 12,6 C 9,0 km/h (2 Bft)
06/04/2007 02:00 10,9 C 63 % 1014,6 hPa 0,0 l/m 0,3 km/h (0 Bft) N 0,00 h 0,051 mm 0 W/m 4,2 C 10,9 C 0,9 km/h (0 Bft)
06/04/2007 03:00 11,5 C 62 % 1014,6 hPa 0,0 l/m 4,1 km/h (1 Bft) NO 0,00 h 0,025 mm 0 W/m 4,5 C 11,5 C 6,0 km/h (2 Bft)
06/04/2007 04:00 10,6 C 65 % 1014,7 hPa 0,0 l/m 5,0 km/h (1 Bft) NO 0,00 h 0,051 mm 0 W/m 4,3 C 10,6 C 7,6 km/h (2 Bft)
06/04/2007 05:00 10,6 C 64 % 1014,9 hPa 0,0 l/m 4,2 km/h (1 Bft) NO 0,00 h 0,051 mm 0 W/m 4,1 C 10,6 C 6,3 km/h (2 Bft)
06/04/2007 06:00 10,6 C 64 % 1015,3 hPa 0,0 l/m 3,1 km/h (1 Bft) O-NO 0,00 h 0,051 mm 0 W/m 4,0 C 10,6 C 4,5 km/h (1 Bft)
06/04/2007 07:00 10,3 C 65 % 1015,7 hPa 0,0 l/m 4,4 km/h (1 Bft) NO 0,07 h 0,025 mm 24 W/m 4,0 C 10,2 C 6,5 km/h (2 Bft)
06/04/2007 08:00 11,6 C 63 % 1016,4 hPa 0,0 l/m 0,5 km/h (0 Bft) N 0,23 h 0,025 mm 112 W/m 4,9 C 11,6 C 1,5 km/h (1 Bft)
06/04/2007 09:00 15,0 C 56 % 1016,7 hPa 0,0 l/m 1,8 km/h (1 Bft) NE 1,00 h 0,076 mm 367 W/m 6,2 C 15,0 C 3,6 km/h (1 Bft)
06/04/2007 10:00 16,7 C 52 % 1017,1 hPa 0,0 l/m 4,9 km/h (1 Bft) E 1,00 h 0,203 mm 538 W/m 6,7 C 16,7 C 7,7 km/h (2 Bft)
06/04/2007 11:00 17,8 C 48 % 1017,5 hPa 0,0 l/m 7,3 km/h (2 Bft) E-SE 1,00 h 0,330 mm 672 W/m 6,7 C 17,8 C 12,5 km/h (3 Bft)
06/04/2007 12:00 17,8 C 49 % 1017,8 hPa 0,0 l/m 5,9 km/h (2 Bft) E 1,00 h 0,432 mm 759 W/m 6,8 C 17,8 C 11,2 km/h (2 Bft)
06/04/2007 13:00 18,0 C 54 % 1017,7 hPa 0,0 l/m 9,4 km/h (2 Bft) E 1,00 h 0,457 mm 789 W/m 8,4 C 18,0 C 14,9 km/h (3 Bft)
06/04/2007 14:00 17,5 C 56 % 1017,7 hPa 0,0 l/m 8,1 km/h (2 Bft) E 1,00 h 0,508 mm 760 W/m 8,5 C 17,5 C 12,9 km/h (3 Bft)
06/04/2007 15:00 17,9 C 49 % 1017,7 hPa 0,0 l/m 7,6 km/h (2 Bft) E 1,00 h 0,457 mm 674 W/m 7,1 C 17,9 C 12,0 km/h (2 Bft)
06/04/2007 16:00 17,6 C 51 % 1017,5 hPa 0,0 l/m 6,2 km/h (2 Bft) E 1,00 h 0,432 mm 538 W/m 7,4 C 17,6 C 9,4 km/h (2 Bft)
06/04/2007 17:00 17,3 C 52 % 1017,4 hPa 0,0 l/m 3,2 km/h (1 Bft) E 1,00 h 0,330 mm 371 W/m 7,2 C 17,3 C 5,6 km/h (1 Bft)
06/04/2007 18:00 16,2 C 54 % 1017,4 hPa 0,0 l/m 1,4 km/h (1 Bft) E-SE 0,98 h 0,229 mm 190 W/m 6,9 C 16,2 C 2,9 km/h (1 Bft)
06/04/2007 19:00 15,2 C 59 % 1017,3 hPa 0,0 l/m 0,3 km/h (0 Bft) E-SE 0,18 h 0,127 mm 45 W/m 7,3 C 15,2 C 1,2 km/h (1 Bft)
06/04/2007 20:00 13,8 C 66 % 1017,5 hPa 0,0 l/m 3,0 km/h (1 Bft) O-NO 0,00 h 0,025 mm 5 W/m 7,4 C 13,8 C 4,4 km/h (1 Bft)
06/04/2007 21:00 12,6 C 65 % 1017,8 hPa 0,0 l/m 2,3 km/h (1 Bft) O-NO 0,00 h 0,025 mm 0 W/m 6,1 C 12,6 C 3,9 km/h (1 Bft)
06/04/2007 22:00 12,4 C 59 % 1018,0 hPa 0,0 l/m 2,5 km/h (1 Bft) N-NO 0,00 h 0,025 mm 0 W/m 4,7 C 12,4 C 4,2 km/h (1 Bft)
06/04/2007 23:00 12,3 C 56 % 1018,0 hPa 0,0 l/m 2,3 km/h (1 Bft) SO 0,00 h 0,051 mm 0 W/m 3,7 C 12,3 C 3,4 km/h (1 Bft)
07/04/2007 00:00 11,7 C 60 % 1018,2 hPa 0,0 l/m 1,4 km/h (1 Bft) SO 0,00 h 0,051 mm 0 W/m 4,2 C 11,7 C 2,0 km/h (1 Bft)
07/04/2007 01:00 11,2 C 61 % 1018,2 hPa 0,0 l/m 2,7 km/h (1 Bft) SO 0,00 h 0,025 mm 0 W/m 4,0 C 11,2 C 3,4 km/h (1 Bft)
07/04/2007 02:00 11,3 C 64 % 1018,1 hPa 0,0 l/m 5,6 km/h (1 Bft) SO 0,00 h 0,051 mm 0 W/m 4,7 C 11,3 C 6,8 km/h (2 Bft)
07/04/2007 03:00 10,7 C 65 % 1017,7 hPa 0,0 l/m 3,3 km/h (1 Bft) O-SO 0,00 h 0,051 mm 0 W/m 4,4 C 10,7 C 4,9 km/h (1 Bft)
07/04/2007 04:00 10,0 C 65 % 1017,5 hPa 0,0 l/m 1,3 km/h (1 Bft) N-NO 0,00 h 0,025 mm 0 W/m 3,8 C 10,0 C 2,6 km/h (1 Bft)
07/04/2007 05:00 11,2 C 60 % 1017,3 hPa 0,0 l/m 1,2 km/h (1 Bft) N-NO 0,00 h 0,025 mm 0 W/m 3,8 C 11,2 C 2,5 km/h (1 Bft)
07/04/2007 06:00 10,8 C 61 % 1017,4 hPa 0,0 l/m 1,4 km/h (1 Bft) O 0,00 h 0,025 mm 0 W/m 3,6 C 10,8 C 2,4 km/h (1 Bft)
07/04/2007 07:00 11,1 C 60 % 1017,9 hPa 0,0 l/m 1,2 km/h (1 Bft) O 0,05 h 0,025 mm 25 W/m 3,7 C 11,1 C 2,2 km/h (1 Bft)
07/04/2007 08:00 12,5 C 60 % 1018,6 hPa 0,0 l/m 0,3 km/h (0 Bft) O 0,27 h 0,025 mm 120 W/m 4,9 C 12,5 C 0,9 km/h (0 Bft)
07/04/2007 09:00 14,2 C 61 % 1018,9 hPa 0,0 l/m 1,8 km/h (1 Bft) S 1,00 h 0,076 mm 371 W/m 6,8 C 14,2 C 3,6 km/h (1 Bft)
07/04/2007 10:00 16,1 C 58 % 1019,1 hPa 0,0 l/m 3,8 km/h (1 Bft) E 1,00 h 0,203 mm 537 W/m 7,7 C 16,1 C 6,6 km/h (2 Bft)
07/04/2007 11:00 17,2 C 66 % 1019,1 hPa 0,0 l/m 6,1 km/h (2 Bft) E 1,00 h 0,305 mm 665 W/m 10,9 C 17,2 C 10,2 km/h (2 Bft)
07/04/2007 12:00 17,1 C 70 % 1019,0 hPa 0,0 l/m 9,7 km/h (2 Bft) E 1,00 h 0,381 mm 753 W/m 11,6 C 17,1 C 14,3 km/h (3 Bft)
07/04/2007 13:00 17,4 C 68 % 1018,6 hPa 0,0 l/m 9,8 km/h (2 Bft) E 1,00 h 0,457 mm 789 W/m 11,4 C 17,4 C 14,7 km/h (3 Bft)
07/04/2007 14:00 17,2 C 65 % 1018,5 hPa 0,0 l/m 8,8 km/h (2 Bft) E 1,00 h 0,483 mm 754 W/m 10,7 C 17,2 C 14,2 km/h (3 Bft)
07/04/2007 15:00 17,3 C 66 % 1018,2 hPa 0,0 l/m 6,0 km/h (2 Bft) E 1,00 h 0,457 mm 668 W/m 10,8 C 17,3 C 9,9 km/h (2 Bft)
07/04/2007 16:00 17,1 C 64 % 1017,6 hPa 0,0 l/m 8,2 km/h (2 Bft) E 1,00 h 0,406 mm 532 W/m 10,2 C 17,1 C 12,5 km/h (3 Bft)
07/04/2007 17:00 16,6 C 69 % 1017,4 hPa 0,0 l/m 5,0 km/h (1 Bft) E-SE 1,00 h 0,330 mm 364 W/m 11,0 C 16,6 C 7,6 km/h (2 Bft)
07/04/2007 18:00 15,7 C 66 % 1017,5 hPa 0,0 l/m 2,2 km/h (1 Bft) SE 0,73 h 0,229 mm 185 W/m 9,3 C 15,7 C 4,1 km/h (1 Bft)
07/04/2007 19:00 14,4 C 70 % 1017,4 hPa 0,0 l/m 0,7 km/h (0 Bft) E 0,00 h 0,102 mm 25 W/m 8,9 C 14,4 C 2,2 km/h (1 Bft)
07/04/2007 20:00 12,7 C 87 % 1017,6 hPa 0,0 l/m 1,4 km/h (1 Bft) E 0,00 h 0,025 mm 0 W/m 10,5 C 12,7 C 3,2 km/h (1 Bft)
07/04/2007 21:00 11,6 C 91 % 1017,5 hPa 0,0 l/m 0,4 km/h (0 Bft) NE 0,00 h 0,000 mm 0 W/m 10,2 C 11,6 C 1,1 km/h (1 Bft)
07/04/2007 22:00 11,0 C 91 % 1017,8 hPa 0,0 l/m 1,6 km/h (1 Bft) O-SO 0,00 h 0,000 mm 0 W/m 9,5 C 11,0 C 2,6 km/h (1 Bft)
07/04/2007 23:00 10,9 C 88 % 1017,4 hPa 0,0 l/m 1,7 km/h (1 Bft) O-NO 0,00 h 0,000 mm 0 W/m 9,1 C 10,9 C 3,0 km/h (1 Bft)
08/04/2007 00:00 10,6 C 87 % 1017,0 hPa 0,0 l/m 2,0 km/h (1 Bft) S-SO 0,00 h 0,025 mm 0 W/m 8,5 C 10,6 C 2,9 km/h (1 Bft)
08/04/2007 01:00 10,8 C 89 % 1017,1 hPa 0,0 l/m 1,5 km/h (1 Bft) S-SO 0,00 h 0,025 mm 0 W/m 9,1 C 10,8 C 2,3 km/h (1 Bft)
08/04/2007 02:00 10,8 C 91 % 1016,9 hPa 0,0 l/m 1,2 km/h (1 Bft) O 0,00 h 0,025 mm 0 W/m 9,4 C 10,8 C 2,2 km/h (1 Bft)
08/04/2007 03:00 10,9 C 92 % 1016,8 hPa 0,0 l/m 0,7 km/h (0 Bft) E-NE 0,00 h 0,000 mm 0 W/m 9,7 C 10,9 C 1,7 km/h (1 Bft)
08/04/2007 04:00 10,5 C 93 % 1016,8 hPa 0,0 l/m 2,4 km/h (1 Bft) O-NO 0,00 h 0,000 mm 0 W/m 9,4 C 10,5 C 3,8 km/h (1 Bft)
08/04/2007 05:00 10,2 C 93 % 1016,9 hPa 0,0 l/m 3,3 km/h (1 Bft) O-NO 0,00 h 0,000 mm 0 W/m 9,1 C 10,2 C 4,9 km/h (1 Bft)
08/04/2007 06:00 10,3 C 93 % 1017,1 hPa 0,0 l/m 3,7 km/h (1 Bft) O-NO 0,00 h 0,000 mm 0 W/m 9,2 C 10,3 C 5,7 km/h (1 Bft)
08/04/2007 07:00 10,4 C 92 % 1017,5 hPa 0,0 l/m 3,2 km/h (1 Bft) O-NO 0,00 h 0,000 mm 14 W/m 9,1 C 10,4 C 5,0 km/h (1 Bft)
08/04/2007 08:00 11,1 C 87 % 1017,8 hPa 0,0 l/m 5,1 km/h (1 Bft) NO 0,00 h 0,000 mm 64 W/m 9,0 C 11,1 C 7,9 km/h (2 Bft)
08/04/2007 09:00 13,0 C 78 % 1018,1 hPa 0,0 l/m 2,9 km/h (1 Bft) NO 0,57 h 0,051 mm 269 W/m 9,3 C 13,0 C 4,9 km/h (1 Bft)
08/04/2007 10:00 13,9 C 76 % 1018,6 hPa 0,0 l/m 2,4 km/h (1 Bft) E 0,00 h 0,152 mm 227 W/m 9,7 C 13,9 C 4,2 km/h (1 Bft)
08/04/2007 11:00 14,6 C 73 % 1019,2 hPa 0,0 l/m 2,9 km/h (1 Bft) E 0,00 h 0,127 mm 291 W/m 9,7 C 14,6 C 5,2 km/h (1 Bft)
08/04/2007 12:00 15,4 C 72 % 1019,3 hPa 0,0 l/m 6,5 km/h (2 Bft) E 0,28 h 0,152 mm 412 W/m 10,2 C 15,4 C 10,4 km/h (2 Bft)
08/04/2007 13:00 16,0 C 69 % 1019,4 hPa 0,0 l/m 6,5 km/h (2 Bft) E 0,73 h 0,254 mm 497 W/m 10,2 C 16,0 C 10,8 km/h (2 Bft)
08/04/2007 14:00 16,0 C 68 % 1019,3 hPa 0,0 l/m 5,5 km/h (1 Bft) E 0,58 h 0,279 mm 513 W/m 10,1 C 16,0 C 9,5 km/h (2 Bft)
08/04/2007 15:00 16,4 C 67 % 1019,0 hPa 0,0 l/m 7,2 km/h (2 Bft) E 0,63 h 0,305 mm 494 W/m 10,2 C 16,4 C 11,3 km/h (2 Bft)
08/04/2007 16:00 16,0 C 68 % 1018,7 hPa 0,0 l/m 6,1 km/h (2 Bft) E 0,83 h 0,305 mm 436 W/m 10,2 C 16,0 C 9,8 km/h (2 Bft)
08/04/2007 17:00 16,3 C 68 % 1018,5 hPa 0,0 l/m 5,9 km/h (2 Bft) E 0,88 h 0,254 mm 336 W/m 10,4 C 16,3 C 9,1 km/h (2 Bft)
08/04/2007 18:00 15,4 C 72 % 1018,7 hPa 0,0 l/m 4,6 km/h (1 Bft) E-SE 1,00 h 0,203 mm 195 W/m 10,4 C 15,4 C 7,5 km/h (2 Bft)
08/04/2007 19:00 14,3 C 77 % 1018,8 hPa 0,0 l/m 1,1 km/h (0 Bft) E-SE 0,18 h 0,127 mm 47 W/m 10,2 C 14,3 C 2,2 km/h (1 Bft)
08/04/2007 20:00 12,6 C 81 % 1019,1 hPa 0,0 l/m 3,9 km/h (1 Bft) S-SE 0,00 h 0,025 mm 5 W/m 9,5 C 12,6 C 5,4 km/h (1 Bft)
08/04/2007 21:00 11,9 C 85 % 1019,6 hPa 0,0 l/m 5,5 km/h (1 Bft) O 0,00 h 0,025 mm 0 W/m 9,5 C 11,9 C 7,3 km/h (2 Bft)
08/04/2007 22:00 11,4 C 88 % 1019,9 hPa 0,0 l/m 4,7 km/h (1 Bft) O-NO 0,00 h 0,025 mm 0 W/m 9,4 C 11,4 C 6,4 km/h (2 Bft)
08/04/2007 23:00 11,0 C 88 % 1020,2 hPa 0,0 l/m 1,3 km/h (1 Bft) O-NO 0,00 h 0,025 mm 0 W/m 9,1 C 11,0 C 2,3 km/h (1 Bft)
Min-Date _ 04/04/07 05/04/07 04/04/07 - 02/04/07 - - - - 06/04/07 04/04/07 02/04/07
_ Min-Heure 07:17 11:11 06:30 - 01:26 - - - - 23:11 07:31 01:31
Minimum _ 6,8 C 36 % 997,5 hPa - 0,0 km/h (0 Bft) - - - - 2,5 C 5,2 C 0,0 km/h (0 Bft)
Max-Date _ 02/04/07 08/04/07 02/04/07 04/04/07 02/04/07 - 02/04/07 02/04/07 03/04/07 07/04/07 02/04/07 02/04/07
_ Max-Heure 13:30 04:22 00:30 21:34 17:24 - 07:22 13:00 13:21 13:29 13:30 12:04
Maximum _ 20,2 C 93 % 1023,0 hPa 0,4 l/m 32,2 km/h
E (5 Bft)
- 0,02 h 0,559 mm 1076 W/m 12,6 C 20,2 C 43,5 km/h
E (6 Bft)
Moyenne _ 13,8 C 66 % 1013,4 hPa #1,2 l/m 5,1 km/h (1 Bft) E #59:11 h #25,356 mm 378 W/m 7,4 C 13,8 C 8,0 km/h (2 Bft)
Roquefort les pins